createdAt,value
2022-10-23T00:01:14.367Z,16.35
2022-10-23T00:03:41.271Z,16.30
2022-10-23T00:06:09.538Z,14.68
2022-10-23T00:08:36.400Z,14.77
2022-10-23T00:11:07.821Z,12.15
2022-10-23T00:13:34.718Z,11.73
2022-10-23T00:16:01.722Z,12.13
2022-10-23T00:18:28.534Z,11.95
2022-10-23T00:20:56.173Z,11.93
2022-10-23T00:23:23.222Z,14.38
2022-10-23T00:25:50.195Z,14.50
2022-10-23T00:28:16.993Z,14.98
2022-10-23T00:30:44.026Z,15.98
2022-10-23T00:33:11.123Z,18.38
2022-10-23T00:35:42.477Z,19.67
2022-10-23T00:38:09.800Z,18.55
2022-10-23T00:40:38.383Z,20.00
2022-10-23T00:43:07.203Z,21.67
2022-10-23T00:45:34.653Z,20.88
2022-10-23T00:48:02.420Z,22.83
2022-10-23T00:50:32.974Z,23.02
2022-10-23T00:53:03.924Z,23.10
2022-10-23T00:55:32.283Z,22.13
2022-10-23T00:57:59.249Z,25.60
2022-10-23T01:00:29.648Z,23.88
2022-10-23T01:02:57.680Z,26.02
2022-10-23T01:05:30.432Z,25.98
2022-10-23T01:08:04.375Z,24.55
2022-10-23T01:10:50.136Z,25.42
2022-10-23T01:13:22.930Z,24.05
2022-10-23T01:16:02.013Z,27.02
2022-10-23T01:18:58.427Z,25.55
2022-10-23T01:21:43.557Z,26.08
2022-10-23T01:24:47.050Z,24.55
2022-10-23T01:27:26.602Z,25.10
2022-10-23T01:32:34.134Z,25.52
2022-10-23T01:35:13.980Z,24.30
2022-10-23T01:37:46.725Z,24.15
2022-10-23T01:40:48.338Z,24.80
2022-10-23T01:43:24.145Z,24.33
2022-10-23T01:46:03.040Z,21.92
2022-10-23T01:48:34.149Z,23.45
2022-10-23T01:51:05.853Z,23.83
2022-10-23T01:53:38.564Z,22.52
2022-10-23T01:56:12.005Z,22.48
2022-10-23T01:58:42.702Z,21.95
2022-10-23T02:01:11.408Z,22.45
2022-10-23T02:03:41.495Z,24.48
2022-10-23T02:06:08.388Z,25.25
2022-10-23T02:08:35.901Z,25.90
2022-10-23T02:11:11.249Z,26.40
2022-10-23T02:13:47.413Z,24.88
2022-10-23T02:16:16.854Z,27.10
2022-10-23T02:19:07.654Z,27.75
2022-10-23T02:21:53.193Z,27.70
2022-10-23T02:24:30.135Z,27.80
2022-10-23T02:27:01.213Z,28.45
2022-10-23T02:29:38.964Z,26.75
2022-10-23T02:32:09.752Z,27.50
2022-10-23T02:34:37.276Z,28.17
2022-10-23T02:37:04.161Z,29.25
2022-10-23T02:39:31.281Z,26.75
2022-10-23T02:42:05.205Z,26.45
2022-10-23T02:45:18.775Z,27.55
2022-10-23T02:47:54.615Z,25.92
2022-10-23T02:50:40.246Z,26.50
2022-10-23T02:53:42.621Z,27.02
2022-10-23T02:56:17.967Z,26.75
2022-10-23T02:59:04.525Z,24.95
2022-10-23T03:01:44.646Z,24.75
2022-10-23T03:04:13.458Z,23.02
2022-10-23T03:06:40.773Z,22.52
2022-10-23T03:09:09.548Z,22.75
2022-10-23T03:11:36.630Z,21.98
2022-10-23T03:14:03.427Z,21.73
2022-10-23T03:16:30.416Z,21.35
2022-10-23T03:18:57.266Z,19.95
2022-10-23T03:21:24.437Z,20.08
2022-10-23T03:23:51.327Z,20.40
2022-10-23T03:26:18.250Z,19.75
2022-10-23T03:28:45.052Z,20.42
2022-10-23T03:31:12.258Z,20.00
2022-10-23T03:33:39.047Z,19.02
2022-10-23T03:36:06.338Z,19.95
2022-10-23T03:38:33.182Z,21.42
2022-10-23T03:41:00.162Z,19.90
2022-10-23T03:43:26.883Z,21.10
2022-10-23T03:45:53.874Z,20.33
2022-10-23T03:48:20.701Z,21.98
2022-10-23T03:50:47.748Z,20.83
2022-10-23T03:53:14.521Z,22.25
2022-10-23T03:55:41.494Z,21.40
2022-10-23T03:58:08.308Z,21.17
2022-10-23T04:00:35.346Z,22.17
2022-10-23T04:03:02.202Z,22.00
2022-10-23T04:05:29.517Z,22.25
2022-10-23T04:07:57.055Z,24.42
2022-10-23T04:10:24.081Z,24.55
2022-10-23T04:12:51.027Z,25.90
2022-10-23T04:15:18.044Z,25.50
2022-10-23T04:17:44.927Z,24.58
2022-10-23T04:20:12.029Z,23.45
2022-10-23T04:22:38.796Z,27.17
2022-10-23T04:25:06.043Z,25.48
2022-10-23T04:27:34.510Z,23.92
2022-10-23T04:30:03.759Z,24.33
2022-10-23T04:32:31.484Z,24.55
2022-10-23T04:34:58.638Z,24.63
2022-10-23T04:37:25.564Z,27.20
2022-10-23T04:39:52.632Z,26.05
2022-10-23T04:42:19.774Z,27.17
2022-10-23T04:44:46.971Z,28.58
2022-10-23T04:47:13.991Z,25.88
2022-10-23T04:49:40.994Z,27.40
2022-10-23T04:52:07.865Z,30.48
2022-10-23T04:54:39.142Z,29.08
2022-10-23T04:57:06.276Z,27.02
2022-10-23T04:59:33.207Z,30.40
2022-10-23T05:02:00.477Z,29.65
2022-10-23T05:04:27.495Z,28.17
2022-10-23T05:06:54.315Z,28.88
2022-10-23T05:09:22.504Z,29.20
2022-10-23T05:11:49.354Z,27.67
2022-10-23T05:14:20.655Z,28.70
2022-10-23T05:16:59.447Z,27.40
2022-10-23T05:19:32.018Z,27.63
2022-10-23T05:21:59.276Z,27.00
2022-10-23T05:24:26.885Z,28.02
2022-10-23T05:26:53.990Z,25.35
2022-10-23T05:29:21.139Z,26.10
2022-10-23T05:31:52.726Z,28.45
2022-10-23T05:34:22.218Z,25.77
2022-10-23T05:36:49.432Z,25.60
2022-10-23T05:39:16.976Z,22.55
2022-10-23T05:41:44.146Z,23.92
2022-10-23T05:44:11.303Z,24.25
2022-10-23T05:46:42.777Z,23.42
2022-10-23T05:49:09.926Z,22.13
2022-10-23T05:51:38.128Z,20.90
2022-10-23T05:54:09.349Z,19.38
2022-10-23T05:56:38.664Z,19.08
2022-10-23T05:59:05.890Z,18.42
2022-10-23T06:01:33.041Z,17.35
2022-10-23T06:04:01.223Z,17.98
2022-10-23T06:06:28.352Z,17.50
2022-10-23T06:08:55.527Z,17.15
2022-10-23T06:11:23.183Z,15.35
2022-10-23T06:13:50.453Z,14.77
2022-10-23T06:16:20.133Z,13.63
2022-10-23T06:18:48.062Z,13.88
2022-10-23T06:21:16.061Z,13.73
2022-10-23T06:23:45.753Z,13.18
2022-10-23T06:26:15.174Z,12.52
2022-10-23T06:28:42.835Z,11.40
2022-10-23T06:31:12.375Z,11.70
2022-10-23T06:33:39.643Z,11.20
2022-10-23T06:36:10.380Z,11.45
2022-10-23T06:38:40.661Z,11.68
2022-10-23T06:41:13.144Z,11.52
2022-10-23T06:43:40.293Z,10.55
2022-10-23T06:46:07.307Z,10.68
2022-10-23T06:48:34.287Z,10.00
2022-10-23T06:51:05.981Z,10.18
2022-10-23T06:53:33.620Z,8.35
2022-10-23T06:56:02.059Z,7.97
2022-10-23T06:58:29.581Z,6.78
2022-10-23T07:01:00.951Z,6.38
2022-10-23T07:03:28.119Z,8.93
2022-10-23T07:05:55.192Z,6.10
2022-10-23T07:08:22.230Z,7.15
2022-10-23T07:10:49.441Z,8.25
2022-10-23T07:13:16.278Z,7.20
2022-10-23T07:15:44.011Z,6.85
2022-10-23T07:18:14.658Z,6.30
2022-10-23T07:20:42.202Z,6.95
2022-10-23T07:23:12.089Z,7.28
2022-10-23T07:25:39.186Z,6.35
2022-10-23T07:28:06.134Z,6.95
2022-10-23T07:30:33.239Z,6.70
2022-10-23T07:33:00.164Z,7.03
2022-10-23T07:35:27.229Z,6.90
2022-10-23T07:37:54.073Z,7.35
2022-10-23T07:40:21.937Z,7.38
2022-10-23T07:42:48.745Z,6.60
2022-10-23T07:45:16.001Z,6.95
2022-10-23T07:47:43.048Z,7.72
2022-10-23T07:50:10.253Z,7.70
2022-10-23T07:52:37.195Z,8.10
2022-10-23T07:55:04.596Z,7.40
2022-10-23T07:57:31.557Z,8.18
2022-10-23T07:59:58.660Z,7.35
2022-10-23T08:02:25.537Z,6.75
2022-10-23T08:04:52.834Z,7.50
2022-10-23T08:07:19.856Z,7.40
2022-10-23T08:09:47.023Z,6.55
2022-10-23T08:12:13.901Z,7.45
2022-10-23T08:14:41.091Z,6.88
2022-10-23T08:17:09.982Z,6.10
2022-10-23T08:19:37.357Z,7.07
2022-10-23T08:22:04.329Z,6.15
2022-10-23T08:24:31.473Z,7.13
2022-10-23T08:26:58.890Z,6.15
2022-10-23T08:29:25.942Z,6.15
2022-10-23T08:31:56.433Z,6.20
2022-10-23T08:34:24.266Z,5.80
2022-10-23T08:36:51.587Z,6.55
2022-10-23T08:39:18.768Z,5.63
2022-10-23T08:41:51.378Z,5.57
2022-10-23T08:44:18.465Z,6.43
2022-10-23T08:46:50.833Z,5.75
2022-10-23T08:49:47.587Z,5.97
2022-10-23T08:52:22.015Z,6.85
2022-10-23T08:55:10.378Z,6.18
2022-10-23T08:57:44.244Z,6.43
2022-10-23T09:00:16.897Z,6.57
2022-10-23T09:02:48.999Z,6.03
2022-10-23T09:05:25.273Z,6.68
2022-10-23T09:08:07.733Z,6.28
2022-10-23T09:11:02.112Z,6.97
2022-10-23T09:13:35.989Z,6.63
2022-10-23T09:16:11.901Z,6.70
2022-10-23T09:18:42.031Z,7.25
2022-10-23T09:21:12.196Z,7.03
2022-10-23T09:23:39.476Z,6.75
2022-10-23T09:26:16.521Z,5.95
2022-10-23T09:28:50.729Z,6.53
2022-10-23T09:31:19.253Z,6.63
2022-10-23T09:34:01.374Z,7.10
2022-10-23T09:36:29.586Z,6.07
2022-10-23T09:38:59.083Z,6.28
2022-10-23T09:41:40.328Z,7.05
2022-10-23T09:44:07.386Z,6.47
2022-10-23T09:46:43.604Z,5.75
2022-10-23T09:49:38.251Z,5.82
2022-10-23T09:52:22.903Z,5.63
2022-10-23T09:54:58.339Z,5.53
2022-10-23T09:57:43.026Z,5.00
2022-10-23T10:00:27.770Z,5.70
2022-10-23T10:02:56.279Z,5.53
2022-10-23T10:05:32.107Z,5.68
2022-10-23T10:08:40.279Z,5.65
2022-10-23T10:11:16.057Z,5.60
2022-10-23T10:14:31.090Z,5.93
2022-10-23T10:17:10.969Z,5.70
2022-10-23T10:20:15.595Z,5.90
2022-10-23T10:23:04.482Z,5.47
2022-10-23T10:25:52.055Z,5.05
2022-10-23T10:28:31.769Z,5.67
2022-10-23T10:31:30.608Z,5.07
2022-10-23T10:34:25.600Z,4.80
2022-10-23T10:37:14.185Z,5.60
2022-10-23T10:39:45.942Z,4.97
2022-10-23T10:42:24.957Z,6.47
2022-10-23T10:47:37.551Z,6.15
2022-10-23T10:50:28.778Z,6.07
2022-10-23T10:53:01.549Z,5.43
2022-10-23T10:55:36.716Z,5.97
2022-10-23T10:58:14.836Z,4.50
2022-10-23T11:00:44.974Z,4.60
2022-10-23T11:03:28.199Z,4.53
2022-10-23T11:05:57.501Z,5.00
2022-10-23T11:08:44.566Z,4.63
2022-10-23T11:11:43.671Z,5.03
2022-10-23T11:14:17.900Z,4.47
2022-10-23T11:16:53.664Z,3.95
2022-10-23T11:19:22.699Z,4.00
2022-10-23T11:22:12.482Z,4.00
2022-10-23T11:25:21.438Z,3.70
2022-10-23T11:40:08.271Z,3.40
2022-10-23T11:42:41.721Z,3.00
2022-10-23T11:45:40.254Z,3.10
2022-10-23T11:48:42.510Z,3.35
2022-10-23T11:51:38.369Z,3.17
2022-10-23T11:54:24.465Z,3.50
2022-10-23T11:57:12.472Z,3.75
2022-10-23T11:59:49.183Z,3.08
2022-10-23T12:02:27.263Z,3.45
2022-10-23T12:04:55.429Z,3.47
2022-10-23T12:07:27.339Z,3.70
2022-10-23T12:10:02.102Z,3.60
2022-10-23T12:12:40.974Z,3.78
2022-10-23T12:15:08.000Z,3.30
2022-10-23T12:17:38.084Z,3.63
2022-10-23T12:20:08.064Z,3.53
2022-10-23T12:22:53.588Z,2.85
2022-10-23T12:25:26.863Z,2.58
2022-10-23T12:28:06.212Z,3.20
2022-10-23T12:30:49.929Z,3.05
2022-10-23T12:33:38.679Z,3.10
2022-10-23T12:38:48.485Z,3.00
2022-10-23T12:41:16.440Z,3.33
2022-10-23T12:43:50.299Z,3.05
2022-10-23T12:46:20.475Z,2.90
2022-10-23T12:48:52.743Z,2.35
2022-10-23T12:51:25.418Z,3.10
2022-10-23T12:53:52.227Z,2.88
2022-10-23T12:56:19.845Z,2.60
2022-10-23T12:59:00.989Z,3.35
2022-10-23T13:01:34.288Z,3.10
2022-10-23T13:04:10.532Z,3.33
2022-10-23T13:06:38.961Z,3.35
2022-10-23T13:09:15.224Z,3.10
2022-10-23T13:11:42.979Z,4.10
2022-10-23T13:14:14.376Z,3.55
2022-10-23T13:16:41.322Z,2.33
2022-10-23T13:19:22.769Z,2.30
2022-10-23T13:21:49.861Z,2.45
2022-10-23T13:24:21.190Z,2.35
2022-10-23T13:26:49.105Z,3.75
2022-10-23T13:31:55.947Z,3.60
2022-10-23T13:34:26.388Z,3.28
2022-10-23T13:36:58.782Z,2.72
2022-10-23T13:39:30.550Z,2.40
2022-10-23T13:42:01.644Z,2.63
2022-10-23T13:44:29.042Z,2.83
2022-10-23T13:46:56.290Z,2.10
2022-10-23T13:49:23.143Z,1.92
2022-10-23T13:51:56.263Z,3.20
2022-10-23T13:54:25.974Z,3.13
2022-10-23T13:56:56.095Z,2.45
2022-10-23T13:59:23.500Z,2.60
2022-10-23T14:01:51.414Z,2.20
2022-10-23T14:04:19.190Z,2.72
2022-10-23T14:06:46.565Z,2.65
2022-10-23T14:09:15.804Z,3.00
2022-10-23T14:11:43.267Z,3.03
2022-10-23T14:14:10.503Z,3.03
2022-10-23T14:16:37.880Z,4.75
2022-10-23T14:19:04.733Z,8.98
2022-10-23T14:21:31.866Z,10.93
2022-10-23T14:23:58.670Z,20.77
2022-10-23T14:26:28.990Z,13.23
2022-10-23T14:28:59.340Z,14.27
2022-10-23T14:31:29.635Z,12.93
2022-10-23T14:33:58.917Z,13.30
2022-10-23T14:36:30.920Z,15.25
2022-10-23T14:39:05.515Z,16.67
2022-10-23T14:41:32.582Z,21.25
2022-10-23T14:43:59.523Z,23.77
2022-10-23T14:46:27.956Z,22.23
2022-10-23T14:48:57.454Z,11.80
2022-10-23T14:51:30.312Z,15.20
2022-10-23T14:54:01.521Z,9.82
2022-10-23T14:56:30.261Z,9.20
2022-10-23T14:59:02.734Z,8.27
2022-10-23T15:01:33.272Z,19.52
2022-10-23T15:04:00.390Z,13.07
2022-10-23T15:06:27.406Z,11.18
2022-10-23T15:08:57.033Z,15.10
2022-10-23T15:11:25.190Z,14.05
2022-10-23T15:13:52.262Z,37.70
2022-10-23T15:16:19.241Z,33.17
2022-10-23T15:18:46.089Z,30.05
2022-10-23T15:21:13.692Z,62.72
2022-10-23T15:23:43.028Z,28.70
2022-10-23T15:26:16.687Z,27.63
2022-10-23T15:28:43.473Z,27.40
2022-10-23T15:31:44.483Z,24.30
2022-10-23T15:34:20.564Z,35.92
2022-10-23T15:36:48.216Z,46.35
2022-10-23T15:39:18.164Z,43.33
2022-10-23T15:41:45.395Z,53.63
2022-10-23T15:44:15.193Z,53.00
2022-10-23T15:46:42.316Z,40.45
2022-10-23T15:49:09.910Z,45.28
2022-10-23T15:51:38.299Z,48.65
2022-10-23T15:54:11.007Z,46.17
2022-10-23T15:56:38.203Z,53.50
2022-10-23T15:59:05.044Z,70.45
2022-10-23T16:01:32.109Z,55.83
2022-10-23T16:03:58.963Z,52.08
2022-10-23T16:06:26.365Z,45.90
2022-10-23T16:11:24.509Z,48.17
2022-10-23T16:13:51.733Z,44.03
2022-10-23T16:16:18.841Z,45.53
2022-10-23T16:18:46.510Z,47.83
2022-10-23T16:21:28.570Z,54.97
2022-10-23T16:23:59.965Z,54.90
2022-10-23T16:26:29.277Z,52.13
2022-10-23T16:28:58.102Z,54.97
2022-10-23T16:31:25.958Z,53.88
2022-10-23T16:33:53.202Z,49.42
2022-10-23T16:36:21.212Z,51.15
2022-10-23T16:38:47.979Z,50.70
2022-10-23T16:41:15.061Z,50.03
2022-10-23T16:43:41.825Z,44.67
2022-10-23T16:46:14.395Z,46.22
2022-10-23T16:48:41.935Z,43.25
2022-10-23T16:51:12.595Z,43.17
2022-10-23T16:53:40.143Z,42.60
2022-10-23T16:56:08.976Z,44.25
2022-10-23T16:58:36.363Z,40.42
2022-10-23T17:01:07.742Z,41.33
2022-10-23T17:03:41.351Z,35.88
2022-10-23T17:06:11.618Z,34.75
2022-10-23T17:08:38.947Z,37.63
2022-10-23T17:11:10.114Z,36.33
2022-10-23T17:13:39.767Z,37.13
2022-10-23T17:16:11.146Z,38.42
2022-10-23T17:18:43.658Z,28.48
2022-10-23T17:21:12.870Z,30.73
2022-10-23T17:23:39.740Z,27.05
2022-10-23T17:26:09.172Z,29.27
2022-10-23T17:28:41.714Z,30.38
2022-10-23T17:31:21.687Z,34.10
2022-10-23T17:33:51.592Z,23.00
2022-10-23T17:36:21.053Z,50.22
2022-10-23T17:41:17.184Z,17.60
2022-10-23T17:43:44.621Z,17.55
2022-10-23T17:46:13.176Z,17.17
2022-10-23T17:48:43.452Z,17.08
2022-10-23T17:51:15.073Z,15.48
2022-10-23T17:53:44.355Z,16.08
2022-10-23T17:56:18.934Z,15.43
2022-10-23T17:58:46.521Z,13.20
2022-10-23T18:01:15.689Z,13.20
2022-10-23T18:03:42.883Z,16.05
2022-10-23T18:06:24.528Z,14.55
2022-10-23T18:08:55.212Z,14.48
2022-10-23T18:11:31.513Z,12.63
2022-10-23T18:16:27.755Z,9.70
2022-10-23T18:18:55.318Z,10.80
2022-10-23T18:21:24.138Z,12.18
2022-10-23T18:23:51.658Z,12.20
2022-10-23T18:26:24.368Z,9.95
2022-10-23T18:28:53.705Z,12.18
2022-10-23T18:31:21.548Z,11.60
2022-10-23T18:33:48.355Z,10.80
2022-10-23T18:36:17.556Z,9.88
2022-10-23T18:38:44.753Z,11.70
2022-10-23T18:41:11.903Z,9.38
2022-10-23T18:43:43.666Z,9.73
2022-10-23T18:46:15.378Z,10.73
2022-10-23T18:48:43.477Z,9.20
2022-10-23T18:51:26.269Z,10.93
2022-10-23T18:53:53.443Z,8.43
2022-10-23T18:56:23.539Z,7.88
2022-10-23T18:58:52.610Z,7.40
2022-10-23T19:01:21.472Z,8.07
2022-10-23T19:03:48.785Z,7.55
2022-10-23T19:06:16.904Z,7.00
2022-10-23T19:08:44.822Z,7.90
2022-10-23T19:11:13.739Z,7.97
2022-10-23T19:13:41.977Z,8.90
2022-10-23T19:16:16.386Z,9.00
2022-10-23T19:18:53.396Z,11.93
2022-10-23T19:21:24.470Z,10.30
2022-10-23T19:23:52.420Z,10.07
2022-10-23T19:26:19.441Z,9.70
2022-10-23T19:28:49.203Z,10.73
2022-10-23T19:31:16.215Z,10.32
2022-10-23T19:33:43.043Z,11.18
2022-10-23T19:36:14.182Z,10.63
2022-10-23T19:38:42.147Z,12.52
2022-10-23T19:41:09.686Z,13.07
2022-10-23T19:43:37.844Z,11.25
2022-10-23T19:46:09.253Z,13.05
2022-10-23T19:48:42.507Z,10.48
2022-10-23T19:51:09.712Z,10.77
2022-10-23T19:53:37.397Z,10.18
2022-10-23T19:56:06.503Z,10.18
2022-10-23T19:58:33.467Z,9.38
2022-10-23T20:01:16.598Z,9.40
2022-10-23T20:03:48.898Z,9.65
2022-10-23T20:06:20.262Z,10.55
2022-10-23T20:08:47.055Z,10.75
2022-10-23T20:11:32.287Z,11.85
2022-10-23T20:13:59.531Z,9.88
2022-10-23T20:16:30.168Z,10.55
2022-10-23T20:18:57.768Z,10.68
2022-10-23T20:21:25.430Z,11.45
2022-10-23T20:23:52.504Z,14.70
2022-10-23T20:26:21.976Z,12.68
2022-10-23T20:31:19.666Z,11.35
2022-10-23T20:33:46.617Z,11.63
2022-10-23T20:36:35.152Z,13.18
2022-10-23T20:39:05.182Z,11.97
2022-10-23T20:41:33.781Z,13.45
2022-10-23T20:44:00.897Z,12.00
2022-10-23T20:46:28.067Z,13.52
2022-10-23T20:48:54.892Z,12.60
2022-10-23T20:51:23.725Z,12.68
2022-10-23T20:53:53.111Z,12.43
2022-10-23T20:56:32.372Z,11.90
2022-10-23T20:59:08.232Z,10.93
2022-10-23T21:01:35.845Z,11.00
2022-10-23T21:04:03.521Z,12.27
2022-10-23T21:06:46.118Z,12.52
2022-10-23T21:09:22.425Z,12.32
2022-10-23T21:11:49.748Z,12.45
2022-10-23T21:14:16.645Z,11.57
2022-10-23T21:16:46.505Z,11.98
2022-10-23T21:19:15.860Z,13.18
2022-10-23T21:21:43.793Z,12.85
2022-10-23T21:24:15.130Z,12.65
2022-10-23T21:26:42.886Z,12.75
2022-10-23T21:29:25.013Z,12.43
2022-10-23T21:31:55.160Z,13.93
2022-10-23T21:34:22.871Z,12.93
2022-10-23T21:39:36.955Z,13.20
2022-10-23T21:42:03.994Z,13.05
2022-10-23T21:44:30.740Z,12.27
2022-10-23T21:46:57.746Z,12.93
2022-10-23T21:49:24.480Z,13.65
2022-10-23T21:51:51.565Z,13.95
2022-10-23T21:54:18.378Z,13.57
2022-10-23T21:56:50.392Z,14.27
2022-10-23T21:59:20.654Z,12.63
2022-10-23T22:01:49.146Z,13.80
2022-10-23T22:04:17.454Z,15.17
2022-10-23T22:06:46.349Z,13.63
2022-10-23T22:09:17.469Z,13.98
2022-10-23T22:11:44.828Z,13.55
2022-10-23T22:14:11.685Z,13.30
2022-10-23T22:16:38.656Z,15.45
2022-10-23T22:19:05.411Z,15.00
2022-10-23T22:21:32.426Z,13.40
2022-10-23T22:24:00.588Z,13.85
2022-10-23T22:26:37.517Z,14.27
2022-10-23T22:29:10.907Z,13.98
2022-10-23T22:31:38.834Z,13.82
2022-10-23T22:34:24.990Z,14.60
2022-10-23T22:36:57.035Z,14.05
2022-10-23T22:39:24.156Z,13.30
2022-10-23T22:41:51.247Z,13.13
2022-10-23T22:44:18.566Z,14.63
2022-10-23T22:46:46.588Z,14.13
2022-10-23T22:49:13.542Z,13.35
2022-10-23T22:51:40.893Z,13.38
2022-10-23T22:54:07.765Z,14.52
2022-10-23T22:56:35.216Z,14.20
2022-10-23T22:59:02.979Z,15.40
2022-10-23T23:01:34.315Z,15.05
2022-10-23T23:04:08.961Z,15.55
2022-10-23T23:06:48.581Z,13.52
2022-10-23T23:09:18.023Z,14.45
2022-10-23T23:11:51.592Z,12.27
2022-10-23T23:14:23.404Z,14.57
2022-10-23T23:16:52.790Z,14.38
2022-10-23T23:19:19.975Z,14.15
2022-10-23T23:21:47.026Z,12.60
2022-10-23T23:24:14.097Z,14.00
2022-10-23T23:26:41.233Z,15.30
2022-10-23T23:29:08.064Z,14.00
2022-10-23T23:31:35.061Z,14.07
2022-10-23T23:34:01.808Z,12.55
2022-10-23T23:36:29.117Z,12.98
2022-10-23T23:38:57.604Z,13.68
2022-10-23T23:41:26.397Z,13.00
2022-10-23T23:43:54.864Z,14.48
2022-10-23T23:46:22.418Z,14.00
2022-10-23T23:48:49.892Z,12.85
2022-10-23T23:51:19.545Z,13.40
2022-10-23T23:53:46.783Z,13.05
2022-10-23T23:56:14.236Z,13.63
2022-10-23T23:58:41.133Z,13.48
